Time;durP1;ratioP1;P1;durP2;ratioP2;P2;SDS_P1;SDS_P2;PMS_P1;PMS_P2;Temp;Humidity;BMP_temperature;BMP_pressure;BME280_temperature;BME280_humidity;BME280_pressure;Samples;Min_cycle;Max_cycle;Signal;HPM_P1;HPM_P2
2022/12/31 04:02:02;;;;;;;2.00;0.60;;;14.70;71.60;;;;;;5519166;23;93893;-71
2022/12/31 04:04:28;;;;;;;1.55;0.50;;;14.30;74.30;;;;;;4865791;28;92147;-71
2022/12/31 04:06:53;;;;;;;1.42;0.60;;;14.00;76.00;;;;;;4877235;28;91102;-71
2022/12/31 04:09:19;;;;;;;1.10;0.22;;;13.80;77.10;;;;;;4872453;28;92479;-71
2022/12/31 04:11:45;;;;;;;2.38;0.68;;;13.70;77.90;;;;;;4866564;28;92121;-69
2022/12/31 04:14:11;;;;;;;1.75;0.50;;;13.70;78.00;;;;;;4863816;28;93353;-71
2022/12/31 04:16:37;;;;;;;1.75;0.40;;;13.70;78.30;;;;;;4865439;28;92143;-72
2022/12/31 04:19:03;;;;;;;1.13;0.40;;;13.60;78.00;;;;;;4864644;28;93270;-71
2022/12/31 04:21:28;;;;;;;2.15;0.50;;;13.60;78.70;;;;;;4864920;28;92096;-70
2022/12/31 04:23:54;;;;;;;1.65;0.47;;;13.50;78.70;;;;;;4856977;28;91801;-71
2022/12/31 04:26:20;;;;;;;1.88;0.60;;;13.40;79.90;;;;;;4859998;28;92055;-71
2022/12/31 04:28:46;;;;;;;2.40;0.65;;;13.40;80.70;;;;;;4864746;28;92353;-69
2022/12/31 04:31:12;;;;;;;2.78;0.52;;;13.30;80.60;;;;;;4864897;28;91228;-72
2022/12/31 04:33:37;;;;;;;1.88;0.80;;;13.20;81.00;;;;;;4862342;28;92298;-72
2022/12/31 04:36:05;;;;;;;1.90;0.60;;;13.10;81.50;;;;;;4866349;28;92528;-72
2022/12/31 04:38:31;;;;;;;1.38;0.60;;;13.10;81.60;;;;;;4882358;28;93445;-72
2022/12/31 04:41:15;;;;;;;1.85;0.77;;;13.10;81.90;;;;;;4880934;28;92850;-72
2022/12/31 04:43:43;;;;;;;3.10;0.60;;;13.10;82.00;;;;;;4860413;28;92145;-72
2022/12/31 04:46:09;;;;;;;1.27;0.47;;;13.10;82.20;;;;;;4878599;28;92026;-72
2022/12/31 04:48:35;;;;;;;1.88;0.63;;;13.10;81.90;;;;;;4870368;28;93014;-71
2022/12/31 04:51:01;;;;;;;1.88;0.47;;;13.10;82.40;;;;;;4871604;28;92149;-72
2022/12/31 04:53:27;;;;;;;3.53;0.52;;;13.00;82.80;;;;;;4873095;28;91933;-71
2022/12/31 04:55:52;;;;;;;2.13;0.50;;;13.00;83.30;;;;;;4869596;28;91361;-71
2022/12/31 04:58:18;;;;;;;1.70;0.50;;;13.00;83.20;;;;;;4863519;28;92373;-71
2022/12/31 05:00:48;;;;;;;1.92;0.70;;;13.00;83.50;;;;;;4852099;28;93272;-71
2022/12/31 05:03:14;;;;;;;1.88;0.45;;;12.90;84.40;;;;;;4851045;28;94127;-71
2022/12/31 05:05:41;;;;;;;2.13;0.30;;;12.90;84.60;;;;;;4869369;28;92017;-71
2022/12/31 05:08:08;;;;;;;3.08;0.40;;;12.90;85.10;;;;;;4860162;28;92419;-71
2022/12/31 05:10:34;;;;;;;1.83;0.30;;;12.80;85.70;;;;;;4868038;28;92219;-71
2022/12/31 05:13:00;;;;;;;3.28;0.70;;;12.80;86.60;;;;;;4862282;28;92106;-72
2022/12/31 05:15:25;;;;;;;2.83;0.70;;;12.80;86.50;;;;;;4847160;28;92548;-71
2022/12/31 05:17:51;;;;;;;1.70;0.43;;;12.70;86.70;;;;;;4852158;28;92998;-72
2022/12/31 05:20:17;;;;;;;2.17;0.50;;;12.60;86.90;;;;;;4864062;28;91917;-72
2022/12/31 05:22:42;;;;;;;1.23;0.20;;;12.70;87.30;;;;;;4863456;28;91984;-71
2022/12/31 05:25:08;;;;;;;0.77;0.10;;;12.60;86.80;;;;;;4863286;28;92685;-71
2022/12/31 05:27:36;;;;;;;0.32;0.00;;;12.70;75.20;;;;;;4862585;28;93401;-72
2022/12/31 05:30:03;;;;;;;0.85;0.03;;;13.00;72.80;;;;;;4862529;28;93546;-72
2022/12/31 05:32:29;;;;;;;0.55;0.10;;;13.20;72.80;;;;;;4863147;28;92110;-72
2022/12/31 05:34:56;;;;;;;0.20;0.00;;;13.30;71.70;;;;;;4862438;28;93027;-72
2022/12/31 05:37:22;;;;;;;0.55;0.00;;;13.30;70.90;;;;;;4862241;28;92047;-72
2022/12/31 05:39:48;;;;;;;1.00;0.25;;;13.40;70.60;;;;;;4852946;28;92414;-72
2022/12/31 05:42:13;;;;;;;1.58;0.10;;;13.40;70.60;;;;;;4873001;28;92061;-72
2022/12/31 05:44:39;;;;;;;0.30;0.10;;;13.50;71.30;;;;;;4872408;28;91914;-72
2022/12/31 05:47:05;;;;;;;0.75;0.10;;;13.40;72.90;;;;;;4863214;28;92172;-72
2022/12/31 05:49:30;;;;;;;0.25;0.10;;;13.40;74.70;;;;;;4863357;28;93202;-72
2022/12/31 05:51:56;;;;;;;0.88;0.10;;;13.30;75.20;;;;;;4860278;28;94034;-72
2022/12/31 05:54:21;;;;;;;1.75;0.03;;;13.30;76.10;;;;;;4869182;28;92006;-72
2022/12/31 05:56:47;;;;;;;0.93;0.10;;;13.20;75.70;;;;;;4854140;28;94351;-71
2022/12/31 05:59:13;;;;;;;0.30;0.10;;;13.20;77.00;;;;;;4865608;28;92813;-72
2022/12/31 06:01:38;;;;;;;1.00;0.10;;;13.20;77.00;;;;;;4851573;28;91879;-72
2022/12/31 06:04:04;;;;;;;0.50;0.10;;;13.10;76.30;;;;;;4857513;28;92918;-71
2022/12/31 06:06:30;;;;;;;0.65;0.20;;;13.10;77.30;;;;;;4868535;28;92873;-71
2022/12/31 06:08:56;;;;;;;0.25;0.00;;;13.00;77.50;;;;;;4861662;28;91917;-72
2022/12/31 06:11:23;;;;;;;0.45;0.10;;;13.00;75.40;;;;;;4871562;28;92541;-70
2022/12/31 06:13:49;;;;;;;3.90;0.10;;;13.00;74.90;;;;;;4862404;28;92397;-70
2022/12/31 06:16:14;;;;;;;0.43;0.10;;;13.10;74.00;;;;;;4851016;28;93382;-70
2022/12/31 06:18:40;;;;;;;0.82;0.10;;;13.20;72.30;;;;;;4857921;28;92798;-71
2022/12/31 06:21:06;;;;;;;0.45;0.10;;;13.20;71.60;;;;;;4863191;28;92013;-71
2022/12/31 06:23:32;;;;;;;0.90;0.25;;;13.30;71.00;;;;;;4861195;28;91795;-71
2022/12/31 06:26:02;;;;;;;1.08;0.10;;;13.40;71.80;;;;;;4861744;28;92411;-71
2022/12/31 06:28:27;;;;;;;1.13;0.13;;;13.40;70.20;;;;;;4860873;28;94977;-72
2022/12/31 06:31:02;;;;;;;0.63;0.00;;;13.40;69.60;;;;;;4862913;28;92697;-71
2022/12/31 06:33:28;;;;;;;0.50;0.10;;;13.50;68.50;;;;;;4861512;28;91288;-72
2022/12/31 06:35:56;;;;;;;0.40;0.10;;;13.70;68.30;;;;;;4862275;28;92504;-71
2022/12/31 06:38:22;;;;;;;1.95;0.13;;;13.80;67.30;;;;;;4864784;28;92881;-71
2022/12/31 06:40:48;;;;;;;0.65;0.22;;;13.90;67.20;;;;;;4863860;28;92920;-71
2022/12/31 06:43:14;;;;;;;0.30;0.00;;;14.00;67.00;;;;;;4860812;28;92034;-71
2022/12/31 06:45:39;;;;;;;0.45;0.00;;;14.10;65.70;;;;;;4864763;28;92406;-71
2022/12/31 06:48:06;;;;;;;0.30;0.10;;;14.20;66.00;;;;;;4874837;28;92673;-72
2022/12/31 06:50:32;;;;;;;0.70;0.00;;;14.30;65.90;;;;;;4872861;28;93155;-72
2022/12/31 06:52:57;;;;;;;0.20;0.10;;;14.40;66.80;;;;;;4867050;28;92605;-71
2022/12/31 06:55:24;;;;;;;0.20;0.10;;;14.50;65.80;;;;;;4862721;28;92943;-72
2022/12/31 06:57:49;;;;;;;0.30;0.10;;;14.50;64.50;;;;;;4862925;28;92217;-72
2022/12/31 07:00:16;;;;;;;0.50;0.10;;;14.60;64.80;;;;;;4866959;28;92230;-72
2022/12/31 07:03:06;;;;;;;0.20;0.00;;;14.80;63.40;;;;;;4854319;28;92751;-72
2022/12/31 07:05:57;;;;;;;0.30;0.05;;;15.00;64.10;;;;;;4861566;28;93871;-72
2022/12/31 07:08:40;;;;;;;0.40;0.10;;;15.20;62.70;;;;;;4856089;28;92112;-71
2022/12/31 07:11:19;;;;;;;0.82;0.10;;;15.30;62.20;;;;;;4861423;28;92749;-72
2022/12/31 07:14:00;;;;;;;0.30;0.10;;;15.30;61.40;;;;;;4863910;28;92029;-71
2022/12/31 07:16:40;;;;;;;0.30;0.00;;;15.40;61.70;;;;;;4849983;28;91916;-71
2022/12/31 07:19:17;;;;;;;0.98;0.00;;;15.50;60.90;;;;;;4848427;28;92255;-70
2022/12/31 07:21:43;;;;;;;0.20;0.00;;;15.60;61.30;;;;;;4850019;28;91765;-70
2022/12/31 07:24:10;;;;;;;0.70;0.10;;;15.60;60.30;;;;;;4846613;28;91444;-70
2022/12/31 07:27:04;;;;;;;0.68;0.20;;;15.60;61.30;;;;;;4844204;28;93903;-71
2022/12/31 07:29:51;;;;;;;0.63;0.32;;;15.60;60.80;;;;;;4848198;28;91826;-71
2022/12/31 07:32:43;;;;;;;0.40;0.10;;;15.60;60.50;;;;;;4857713;28;93070;-72
2022/12/31 07:35:51;;;;;;;1.27;0.10;;;15.70;60.00;;;;;;4852304;28;91971;-72
2022/12/31 07:38:36;;;;;;;0.20;0.10;;;15.70;60.30;;;;;;4787031;28;93321;-72
2022/12/31 07:41:17;;;;;;;0.95;0.30;;;15.80;60.00;;;;;;4847901;28;93956;-72
2022/12/31 07:43:47;;;;;;;0.32;0.20;;;15.80;60.00;;;;;;4847487;28;93200;-71
2022/12/31 07:46:58;;;;;;;0.52;0.10;;;15.90;59.70;;;;;;4851247;28;91922;-71
2022/12/31 07:49:26;;;;;;;0.30;0.03;;;15.90;59.30;;;;;;4814838;28;92431;-72
2022/12/31 07:51:52;;;;;;;0.15;0.00;;;15.90;58.80;;;;;;4860196;28;94141;-71
2022/12/31 07:54:18;;;;;;;1.10;0.00;;;16.00;58.80;;;;;;4848985;28;93362;-71
2022/12/31 07:56:44;;;;;;;1.38;0.00;;;15.90;59.40;;;;;;4854155;28;92034;-71
2022/12/31 07:59:40;;;;;;;0.40;0.10;;;15.80;59.10;;;;;;4854091;28;93979;-72
2022/12/31 08:02:43;;;;;;;0.50;0.00;;;15.80;59.60;;;;;;4851284;28;93478;-72
2022/12/31 08:05:24;;;;;;;1.45;0.10;;;15.70;59.40;;;;;;4854079;28;92176;-72
2022/12/31 08:08:14;;;;;;;0.22;0.10;;;15.70;59.10;;;;;;4856747;28;91966;-72
2022/12/31 08:11:15;;;;;;;0.20;0.10;;;15.70;59.90;;;;;;4855507;28;92585;-72
2022/12/31 08:13:41;;;;;;;0.30;0.10;;;15.70;59.50;;;;;;4846019;28;93570;-72
2022/12/31 08:16:10;;;;;;;1.00;0.15;;;15.80;60.30;;;;;;4857014;28;92086;-72
2022/12/31 08:18:36;;;;;;;1.50;0.40;;;15.70;64.60;;;;;;4859999;28;91607;-72
2022/12/31 08:21:11;;;;;;;3.70;2.28;;;15.60;67.60;;;;;;4852413;28;94920;-72
2022/12/31 08:23:48;;;;;;;2.60;0.20;;;15.20;70.10;;;;;;4856233;28;93061;-71
2022/12/31 08:26:26;;;;;;;0.38;0.10;;;15.20;65.20;;;;;;4841734;28;93184;-71
2022/12/31 08:29:39;;;;;;;0.85;0.10;;;15.30;61.60;;;;;;4848878;28;92613;-71
2022/12/31 08:32:21;;;;;;;0.43;0.05;;;15.40;61.30;;;;;;4762604;29;94077;-72
2022/12/31 08:35:18;;;;;;;0.57;0.10;;;15.60;59.90;;;;;;4765340;29;92126;-72
2022/12/31 08:37:48;;;;;;;0.63;0.38;;;15.70;59.60;;;;;;4830831;28;92126;-72
2022/12/31 08:40:19;;;;;;;0.30;0.10;;;15.90;60.60;;;;;;4853465;28;92248;-72
2022/12/31 08:43:02;;;;;;;0.30;0.00;;;16.10;58.70;;;;;;4856147;28;92565;-71
2022/12/31 08:45:34;;;;;;;2.00;0.38;;;16.20;59.50;;;;;;4861426;28;91935;-71
2022/12/31 08:48:23;;;;;;;3.53;0.57;;;16.40;61.70;;;;;;4858152;28;92166;-72
2022/12/31 08:50:50;;;;;;;1.63;0.70;;;16.20;68.30;;;;;;4859921;28;92688;-72
2022/12/31 08:53:15;;;;;;;2.60;0.52;;;15.80;70.20;;;;;;4861132;28;93746;-72
2022/12/31 08:55:43;;;;;;;2.00;0.50;;;15.50;73.00;;;;;;4862753;28;92093;-72
2022/12/31 08:58:23;;;;;;;1.33;0.50;;;15.10;74.10;;;;;;4856348;28;92055;-72
2022/12/31 09:00:54;;;;;;;1.77;0.52;;;15.10;74.10;;;;;;4855972;28;92595;-72
2022/12/31 09:03:35;;;;;;;2.38;0.98;;;15.20;74.10;;;;;;4857702;28;94000;-72
2022/12/31 09:06:26;;;;;;;15.95;9.27;;;15.20;74.30;;;;;;4852659;28;92248;-72
2022/12/31 09:08:59;;;;;;;4.93;0.95;;;15.40;74.50;;;;;;4849890;28;92551;-72
2022/12/31 09:11:46;;;;;;;3.03;0.93;;;15.40;74.20;;;;;;4852794;28;92201;-72
2022/12/31 09:14:41;;;;;;;2.22;0.85;;;15.60;73.40;;;;;;4850628;28;92093;-72
2022/12/31 09:17:23;;;;;;;3.78;0.98;;;15.50;73.80;;;;;;4851458;28;93208;-72
2022/12/31 09:19:49;;;;;;;2.47;0.40;;;15.50;73.20;;;;;;4854907;28;93165;-72
2022/12/31 09:22:15;;;;;;;2.25;0.90;;;15.50;73.00;;;;;;4853565;28;92168;-72
2022/12/31 09:24:41;;;;;;;3.35;0.60;;;15.70;72.50;;;;;;4857301;28;92970;-72
2022/12/31 09:27:16;;;;;;;1.20;0.45;;;16.10;72.00;;;;;;4854997;28;92112;-72
2022/12/31 09:30:00;;;;;;;2.95;0.80;;;16.50;71.20;;;;;;4858643;28;92517;-72
2022/12/31 09:32:38;;;;;;;5.03;0.52;;;16.70;70.30;;;;;;4852998;28;92332;-72
2022/12/31 09:35:03;;;;;;;3.63;0.70;;;16.60;69.90;;;;;;4854393;28;92654;-72
2022/12/31 09:37:41;;;;;;;1.40;0.50;;;16.50;69.80;;;;;;4853752;28;92302;-72
2022/12/31 09:40:17;;;;;;;2.13;0.45;;;16.70;68.90;;;;;;4852905;28;92586;-72
2022/12/31 09:42:43;;;;;;;;;;;17.70;66.50;;;;;;4852737;28;92278;-72
2022/12/31 09:45:42;;;;;;;2.20;0.30;;;18.10;64.60;;;;;;4855889;28;93264;-72
2022/12/31 09:48:41;;;;;;;2.78;0.70;;;18.30;63.40;;;;;;4854190;28;93472;-72
2022/12/31 09:51:22;;;;;;;2.00;0.50;;;18.20;63.60;;;;;;4853298;28;92236;-73
2022/12/31 09:54:23;;;;;;;1.58;0.60;;;18.80;63.00;;;;;;4854327;28;91973;-73
2022/12/31 09:57:21;;;;;;;1.88;0.45;;;20.40;58.70;;;;;;4852598;28;92948;-71
2022/12/31 10:00:02;;;;;;;2.60;0.60;;;21.50;55.70;;;;;;4853461;28;92095;-71
2022/12/31 10:02:58;;;;;;;1.23;0.32;;;21.40;51.60;;;;;;4853340;28;92845;-71
2022/12/31 10:05:42;;;;;;;0.60;0.20;;;21.10;51.00;;;;;;4857974;28;91070;-73
2022/12/31 10:08:19;;;;;;;3.53;0.50;;;20.80;51.40;;;;;;4857494;28;93198;-71
2022/12/31 10:10:58;;;;;;;0.40;0.10;;;20.90;53.20;;;;;;4858503;28;91873;-71
2022/12/31 10:13:45;;;;;;;0.90;0.30;;;21.30;50.40;;;;;;4851714;28;93296;-71
2022/12/31 10:16:37;;;;;;;0.70;0.30;;;21.70;48.70;;;;;;4854122;28;92267;-71
2022/12/31 10:19:11;;;;;;;1.30;0.30;;;21.70;48.00;;;;;;4848377;28;92309;-71
2022/12/31 10:22:01;;;;;;;0.93;0.40;;;21.40;48.80;;;;;;4855213;28;92357;-73
2022/12/31 10:24:44;;;;;;;0.75;0.20;;;20.80;49.60;;;;;;4863021;28;91919;-73
2022/12/31 10:27:47;;;;;;;3.55;0.15;;;20.30;50.00;;;;;;4862806;28;91979;-73
2022/12/31 10:30:19;;;;;;;0.90;0.15;;;19.80;51.00;;;;;;4833476;28;93865;-72
2022/12/31 10:33:14;;;;;;;7.53;0.65;;;19.40;51.10;;;;;;4844583;28;92433;-73
2022/12/31 10:36:08;;;;;;;3.08;0.25;;;19.70;51.30;;;;;;4862273;28;91837;-72
2022/12/31 10:39:03;;;;;;;3.67;0.20;;;20.00;51.80;;;;;;4858657;28;92152;-73
2022/12/31 10:41:38;;;;;;;0.85;0.20;;;19.90;50.90;;;;;;4849504;28;93202;-73
2022/12/31 10:44:41;;;;;;;2.05;0.60;;;19.60;52.60;;;;;;4848992;28;92249;-72
2022/12/31 10:47:19;;;;;;;1.85;0.75;;;19.60;58.60;;;;;;4862053;28;93335;-73
2022/12/31 10:50:27;;;;;;;1.10;0.35;;;19.50;58.90;;;;;;4859109;28;92749;-73
2022/12/31 10:53:31;;;;;;;1.33;0.30;;;19.00;60.00;;;;;;4859854;28;92912;-73
2022/12/31 10:56:08;;;;;;;3.30;0.38;;;18.90;60.60;;;;;;4854610;28;92757;-73
2022/12/31 10:58:43;;;;;;;3.30;0.57;;;18.70;58.60;;;;;;4851832;28;92164;-73
2022/12/31 11:01:32;;;;;;;4.70;0.60;;;18.60;61.70;;;;;;4861796;28;91181;-73
2022/12/31 11:04:16;;;;;;;2.90;0.30;;;18.40;64.10;;;;;;4855551;28;92540;-73
2022/12/31 11:07:03;;;;;;;2.20;0.68;;;18.20;63.80;;;;;;4850381;28;92222;-71
2022/12/31 11:09:37;;;;;;;1.33;0.40;;;18.00;65.70;;;;;;4845410;28;92996;-71
2022/12/31 11:12:26;;;;;;;1.00;0.30;;;17.70;64.70;;;;;;4856933;28;91928;-71
2022/12/31 11:14:57;;;;;;;0.95;0.20;;;17.40;64.90;;;;;;4852183;28;92285;-73
2022/12/31 11:17:46;;;;;;;1.10;0.40;;;17.30;65.20;;;;;;4860493;28;92306;-71
2022/12/31 11:20:49;;;;;;;1.00;0.17;;;17.20;65.80;;;;;;4830209;28;92089;-71
2022/12/31 11:23:36;;;;;;;1.63;0.38;;;17.30;65.60;;;;;;4861619;28;92062;-73
2022/12/31 11:26:17;;;;;;;1.25;0.32;;;17.20;66.20;;;;;;4849449;28;91879;-73
2022/12/31 11:28:52;;;;;;;1.20;0.30;;;17.10;65.80;;;;;;4859670;28;92623;-74
2022/12/31 11:31:45;;;;;;;0.93;0.20;;;17.00;66.30;;;;;;4847887;28;92880;-71
2022/12/31 11:34:16;;;;;;;1.83;0.52;;;16.90;67.10;;;;;;4855429;28;91945;-71
2022/12/31 11:37:15;;;;;;;1.52;0.40;;;16.90;66.90;;;;;;4862022;28;93702;-71
2022/12/31 11:40:05;;;;;;;1.63;0.50;;;16.90;67.10;;;;;;4856406;28;93445;-71
2022/12/31 11:43:18;;;;;;;1.80;0.50;;;16.90;67.00;;;;;;4853854;28;91848;-71
2022/12/31 11:46:03;;;;;;;1.65;0.30;;;16.90;67.60;;;;;;4741864;29;93498;-71
2022/12/31 11:48:55;;;;;;;1.70;0.50;;;17.00;67.60;;;;;;4859482;28;92570;-71
2022/12/31 11:51:59;;;;;;;0.80;0.20;;;17.00;67.90;;;;;;4856545;28;92480;-71
2022/12/31 11:54:30;;;;;;;2.72;0.40;;;17.10;68.20;;;;;;4865501;28;92729;-71
2022/12/31 11:57:04;;;;;;;1.00;0.35;;;17.10;68.50;;;;;;4852436;28;91598;-72
2022/12/31 11:59:30;;;;;;;1.85;0.43;;;17.10;68.00;;;;;;4863192;28;92421;-71
2022/12/31 12:02:14;;;;;;;1.70;0.40;;;17.10;68.50;;;;;;4862300;28;91974;-71
2022/12/31 12:04:40;;;;;;;0.98;0.35;;;17.10;68.10;;;;;;4857885;28;92983;-71
2022/12/31 12:07:14;;;;;;;2.97;0.30;;;17.10;68.10;;;;;;4864576;28;92229;-71
2022/12/31 12:09:42;;;;;;;1.60;0.40;;;17.00;68.40;;;;;;4865653;28;91964;-71
2022/12/31 12:12:08;;;;;;;2.40;0.40;;;17.00;68.20;;;;;;4864139;28;92148;-71
2022/12/31 12:14:42;;;;;;;3.95;0.73;;;17.10;69.10;;;;;;4865739;28;91827;-71
2022/12/31 12:17:14;;;;;;;1.67;0.35;;;17.00;69.50;;;;;;4854002;28;91848;-71
2022/12/31 12:19:45;;;;;;;6.97;1.38;;;17.10;69.60;;;;;;4855680;28;92388;-72
2022/12/31 12:22:13;;;;;;;3.53;1.20;;;17.00;69.50;;;;;;4851331;28;92129;-71
2022/12/31 12:24:39;;;;;;;3.65;1.63;;;17.00;69.70;;;;;;4869579;28;92159;-71
2022/12/31 12:27:20;;;;;;;2.83;0.93;;;17.00;69.90;;;;;;4868395;28;91841;-71
2022/12/31 12:29:46;;;;;;;3.53;0.90;;;17.00;70.20;;;;;;4862139;28;94261;-71
2022/12/31 12:32:18;;;;;;;3.35;1.42;;;16.90;70.10;;;;;;4852565;28;93045;-71
2022/12/31 12:34:44;;;;;;;4.57;1.90;;;16.90;70.30;;;;;;4859440;28;92738;-71
2022/12/31 12:37:24;;;;;;;4.63;1.52;;;16.90;69.60;;;;;;4856233;28;92121;-71
2022/12/31 12:40:02;;;;;;;8.63;1.65;;;17.00;68.70;;;;;;4854296;28;92383;-71
2022/12/31 12:42:29;;;;;;;5.80;1.55;;;17.00;69.20;;;;;;4864578;28;92781;-71
2022/12/31 12:45:09;;;;;;;2.50;0.80;;;17.00;68.40;;;;;;4865128;28;92764;-71
2022/12/31 12:47:35;;;;;;;3.00;0.90;;;16.90;67.70;;;;;;4857832;28;91164;-71
2022/12/31 12:50:02;;;;;;;8.95;3.65;;;17.00;67.40;;;;;;4865653;28;92026;-71
2022/12/31 12:53:06;;;;;;;6.80;3.75;;;17.00;67.30;;;;;;4865439;28;92715;-71
2022/12/31 12:55:56;;;;;;;3.10;1.10;;;17.00;66.60;;;;;;4815710;28;94229;-70
2022/12/31 12:58:31;;;;;;;3.40;1.73;;;17.00;67.10;;;;;;4856692;28;91912;-73
2022/12/31 13:00:59;;;;;;;8.48;1.40;;;17.00;66.50;;;;;;4856222;28;94079;-71
2022/12/31 13:03:47;;;;;;;5.45;1.13;;;17.10;65.70;;;;;;4856037;28;92198;-71
2022/12/31 13:06:24;;;;;;;5.35;2.60;;;17.10;65.10;;;;;;4859406;28;93275;-73
2022/12/31 13:09:23;;;;;;;2.70;0.90;;;17.20;65.40;;;;;;4864781;28;92159;-73
2022/12/31 13:11:52;;;;;;;9.57;2.42;;;17.20;64.90;;;;;;4858677;28;92374;-73
2022/12/31 13:14:35;;;;;;;12.60;3.47;;;17.20;64.90;;;;;;4859774;28;92303;-71
2022/12/31 13:17:28;;;;;;;5.00;1.20;;;17.30;65.00;;;;;;4855689;28;91575;-73
2022/12/31 13:20:17;;;;;;;10.73;6.22;;;17.30;65.00;;;;;;4849782;28;93578;-71
2022/12/31 13:22:49;;;;;;;6.95;2.80;;;17.30;64.90;;;;;;4846951;28;94070;-73
2022/12/31 13:25:25;;;;;;;5.57;1.33;;;17.30;65.10;;;;;;4861000;28;92871;-73
2022/12/31 13:27:54;;;;;;;2.83;1.30;;;17.30;65.10;;;;;;4852437;28;92720;-70
2022/12/31 13:30:26;;;;;;;2.05;1.02;;;17.30;64.70;;;;;;4853260;28;92132;-73
2022/12/31 13:33:02;;;;;;;2.15;0.60;;;17.30;64.90;;;;;;4847061;28;93047;-73
2022/12/31 13:35:55;;;;;;;3.60;1.42;;;17.30;64.50;;;;;;4855612;28;92880;-73
2022/12/31 13:38:35;;;;;;;53.55;25.90;;;17.30;64.60;;;;;;4859302;28;91977;-72
2022/12/31 13:41:07;;;;;;;34.15;16.63;;;17.30;64.90;;;;;;4863484;28;90907;-73
2022/12/31 13:43:37;;;;;;;16.50;7.93;;;17.30;64.90;;;;;;4852793;28;92598;-73
2022/12/31 13:46:12;;;;;;;7.50;3.75;;;17.20;65.10;;;;;;4858163;28;93395;-73
2022/12/31 13:48:58;;;;;;;4.22;1.80;;;17.20;65.30;;;;;;4855709;28;94160;-73
2022/12/31 13:51:43;;;;;;;15.48;6.32;;;17.20;65.30;;;;;;4859937;28;91873;-73
2022/12/31 13:54:14;;;;;;;11.70;5.60;;;17.10;65.60;;;;;;4861062;28;93277;-73
2022/12/31 13:56:43;;;;;;;12.10;6.05;;;17.00;65.90;;;;;;4865718;28;92644;-73
2022/12/31 13:59:44;;;;;;;10.90;5.80;;;17.00;65.90;;;;;;4857278;28;92727;-73
2022/12/31 14:02:57;;;;;;;16.52;6.30;;;17.00;65.90;;;;;;4805507;28;92918;-73
2022/12/31 14:05:35;;;;;;;37.40;14.93;;;16.90;68.20;;;;;;4843892;28;92113;-73
2022/12/31 14:08:04;;;;;;;35.22;13.88;;;16.90;69.80;;;;;;4848619;28;91446;-73
2022/12/31 14:10:49;;;;;;;18.05;6.22;;;16.90;68.00;;;;;;4851584;28;92039;-73
2022/12/31 14:13:55;;;;;;;11.60;3.83;;;16.90;67.30;;;;;;4840845;28;92206;-73
2022/12/31 14:16:24;;;;;;;6.60;1.75;;;16.80;72.10;;;;;;4840812;28;94279;-72
2022/12/31 14:18:49;;;;;;;8.10;1.52;;;16.80;71.80;;;;;;4847973;28;93989;-72
2022/12/31 14:21:26;;;;;;;3.42;1.00;;;16.70;68.80;;;;;;4855241;28;92037;-72
2022/12/31 14:24:08;;;;;;;3.35;1.00;;;16.70;67.50;;;;;;4860809;28;92054;-73
2022/12/31 14:26:42;;;;;;;1.95;0.60;;;16.60;67.90;;;;;;4854623;28;92427;-74
2022/12/31 14:29:17;;;;;;;2.05;0.52;;;16.50;67.40;;;;;;4851397;28;93214;-72
2022/12/31 14:32:08;;;;;;;1.80;0.60;;;16.50;67.30;;;;;;4851721;28;92106;-72
2022/12/31 14:34:53;;;;;;;3.63;0.73;;;16.40;67.40;;;;;;4853443;28;91563;-73
2022/12/31 14:37:40;;;;;;;2.63;0.73;;;16.30;67.50;;;;;;4843559;28;92788;-72
2022/12/31 14:40:34;;;;;;;3.95;1.10;;;16.30;67.70;;;;;;4847694;28;92602;-72
2022/12/31 14:43:16;;;;;;;3.42;1.40;;;16.20;68.00;;;;;;4812169;28;93044;-73
2022/12/31 14:45:51;;;;;;;9.13;3.53;;;16.10;68.10;;;;;;4847389;28;94244;-73
2022/12/31 14:48:25;;;;;;;13.40;6.28;;;16.10;68.50;;;;;;4847777;28;93200;-72
2022/12/31 14:50:51;;;;;;;10.93;3.92;;;16.00;68.90;;;;;;4840658;28;93150;-73
2022/12/31 14:53:28;;;;;;;6.90;3.45;;;15.80;69.40;;;;;;4853886;28;92321;-73
2022/12/31 14:56:27;;;;;;;15.55;4.20;;;15.70;69.90;;;;;;4854268;28;92832;-72
2022/12/31 14:58:59;;;;;;;9.98;4.68;;;15.70;70.30;;;;;;4851058;28;92980;-73
2022/12/31 15:01:25;;;;;;;23.30;11.13;;;15.50;70.70;;;;;;4854224;28;92802;-73
2022/12/31 15:03:54;;;;;;;16.50;8.05;;;15.40;71.00;;;;;;4853748;28;92561;-72
2022/12/31 15:06:22;;;;;;;15.02;7.70;;;15.30;71.20;;;;;;4856876;28;93021;-72
2022/12/31 15:09:08;;;;;;;12.80;6.40;;;15.20;71.90;;;;;;4860578;28;93310;-71
2022/12/31 15:11:41;;;;;;;18.23;8.43;;;15.20;72.80;;;;;;4854877;28;93648;-71
2022/12/31 15:14:31;;;;;;;12.93;6.13;;;15.00;73.60;;;;;;4855039;28;92438;-70
2022/12/31 15:17:28;;;;;;;14.05;6.70;;;14.90;74.00;;;;;;4856730;28;93365;-69
2022/12/31 15:20:11;;;;;;;27.83;13.88;;;14.70;74.40;;;;;;4861766;28;92285;-69
2022/12/31 15:22:47;;;;;;;21.70;7.70;;;14.60;74.30;;;;;;4853460;28;92141;-69
2022/12/31 15:25:26;;;;;;;14.07;6.22;;;14.50;74.80;;;;;;4856757;28;92974;-70
2022/12/31 15:27:54;;;;;;;9.63;5.47;;;14.40;75.70;;;;;;4856032;28;91206;-69
2022/12/31 15:30:38;;;;;;;10.82;5.05;;;14.30;75.60;;;;;;4853375;28;93020;-69
2022/12/31 15:33:51;;;;;;;11.10;5.28;;;14.20;76.50;;;;;;4854096;28;92299;-69
2022/12/31 15:36:20;;;;;;;8.68;4.25;;;14.10;77.10;;;;;;4813545;28;94021;-69
2022/12/31 15:38:46;;;;;;;10.77;2.80;;;14.00;76.80;;;;;;4851295;28;92004;-69
2022/12/31 15:41:17;;;;;;;6.93;3.00;;;13.90;77.30;;;;;;4852013;28;92234;-69
2022/12/31 15:43:49;;;;;;;10.48;3.22;;;13.80;77.70;;;;;;4858300;28;92910;-69
2022/12/31 15:46:22;;;;;;;9.27;4.00;;;13.70;77.50;;;;;;4856932;28;92507;-69
2022/12/31 15:48:51;;;;;;;10.60;3.70;;;13.70;77.50;;;;;;4853550;28;92839;-70
2022/12/31 15:51:41;;;;;;;10.63;4.53;;;13.60;78.10;;;;;;4857268;28;92894;-69
2022/12/31 15:54:30;;;;;;;11.52;5.57;;;13.50;78.40;;;;;;4851150;28;93767;-69
2022/12/31 15:56:56;;;;;;;12.35;4.72;;;13.40;78.10;;;;;;4857464;28;92150;-69
2022/12/31 15:59:24;;;;;;;11.25;4.40;;;13.40;78.30;;;;;;4859576;28;93799;-70
2022/12/31 16:01:53;;;;;;;17.83;7.72;;;13.30;78.40;;;;;;4856004;28;93389;-69
2022/12/31 16:04:27;;;;;;;17.38;9.50;;;13.20;79.10;;;;;;4859432;28;93229;-69
2022/12/31 16:06:53;;;;;;;21.85;12.25;;;13.10;80.20;;;;;;4863089;28;91789;-69
2022/12/31 16:09:32;;;;;;;25.48;13.88;;;13.00;80.40;;;;;;4850734;28;92520;-69
2022/12/31 16:11:59;;;;;;;24.92;14.30;;;12.90;81.40;;;;;;4854877;28;92525;-69
2022/12/31 16:14:30;;;;;;;34.65;16.45;;;12.80;81.70;;;;;;4857384;28;91918;-69
2022/12/31 16:16:59;;;;;;;23.55;11.95;;;12.80;82.10;;;;;;4856820;28;92087;-69
2022/12/31 16:19:34;;;;;;;22.45;10.20;;;12.70;82.30;;;;;;4852307;28;91172;-69
2022/12/31 16:22:22;;;;;;;24.77;12.50;;;12.70;82.30;;;;;;4859390;28;92366;-69
2022/12/31 16:24:58;;;;;;;25.33;12.60;;;12.60;82.40;;;;;;4846463;28;92665;-69
2022/12/31 16:27:25;;;;;;;28.45;13.38;;;12.60;82.70;;;;;;4842374;28;93030;-70
2022/12/31 16:29:57;;;;;;;26.33;11.55;;;12.50;83.90;;;;;;4857326;28;93786;-70
2022/12/31 16:32:23;;;;;;;22.98;11.68;;;12.50;83.30;;;;;;4850189;28;92694;-71
2022/12/31 16:34:49;;;;;;;23.52;13.75;;;12.50;82.90;;;;;;4858706;28;91726;-71
2022/12/31 16:37:20;;;;;;;27.77;12.50;;;12.40;83.80;;;;;;4859622;28;93621;-71
2022/12/31 16:39:57;;;;;;;24.35;11.35;;;12.40;83.30;;;;;;4855701;28;92590;-71
2022/12/31 16:42:27;;;;;;;27.63;12.90;;;12.40;84.60;;;;;;4864551;28;92599;-71
2022/12/31 16:44:55;;;;;;;25.55;13.52;;;12.30;83.90;;;;;;4859767;28;92906;-70
2022/12/31 16:47:44;;;;;;;23.50;11.48;;;12.30;84.60;;;;;;4854679;28;91891;-70
2022/12/31 16:50:14;;;;;;;;;;;12.20;83.80;;;;;;4858839;28;91753;-70
2022/12/31 16:52:44;;;;;;;30.58;16.15;;;12.20;84.10;;;;;;4856700;28;93858;-71
2022/12/31 16:55:23;;;;;;;34.13;16.73;;;12.20;84.10;;;;;;4852692;28;92921;-71
2022/12/31 16:58:11;;;;;;;37.88;21.05;;;12.20;84.40;;;;;;4853862;28;91864;-71
2022/12/31 17:00:37;;;;;;;36.83;18.08;;;12.10;84.90;;;;;;4860619;28;92166;-71
2022/12/31 17:03:18;;;;;;;47.47;25.52;;;12.00;84.70;;;;;;4848668;28;92651;-71
2022/12/31 17:06:02;;;;;;;76.90;40.53;;;12.00;85.10;;;;;;4855702;28;92696;-70
2022/12/31 17:08:43;;;;;;;67.85;35.75;;;11.90;85.40;;;;;;4854663;28;92995;-71
2022/12/31 17:11:35;;;;;;;55.00;29.60;;;11.90;85.10;;;;;;4851572;28;93072;-71
2022/12/31 17:14:07;;;;;;;60.67;32.65;;;11.80;85.30;;;;;;4858579;28;93026;-71
2022/12/31 17:16:38;;;;;;;69.38;32.10;;;11.70;85.90;;;;;;4853227;28;92084;-71
2022/12/31 17:19:04;;;;;;;88.00;41.53;;;11.70;86.10;;;;;;4855377;28;93617;-70
2022/12/31 17:21:31;;;;;;;92.25;48.05;;;11.70;86.10;;;;;;4858442;28;92445;-71
2022/12/31 17:24:02;;;;;;;107.03;54.47;;;11.70;86.30;;;;;;4860867;28;92257;-70
2022/12/31 17:26:31;;;;;;;114.43;58.55;;;11.70;85.90;;;;;;4849787;28;92803;-71
2022/12/31 17:28:59;;;;;;;129.43;67.40;;;11.70;87.30;;;;;;4850721;28;92169;-70
2022/12/31 17:31:35;;;;;;;132.02;68.18;;;11.70;86.60;;;;;;4858937;28;93672;-70